Henri — WDF2420 — position and weather

sailwx.info

Track history (hours):
 
Tides and Currents Weather Stations Pressure Air Temp Water Temp Dewpoint Dewpoint Depression Visibility Wind Speed Wind Dir Waves Ship Positions

Henri

Owner: Enterprise Marine Services, LLC, San Antonio, TX. More information available from US FCC via Universal Licensing System and Coast Guard Vessel Documentation Center.

Last reported at 2017-Nov-10 02:06 UTC. Time now 2017-Nov-22 14:49 UTC.
Position N 29°34' W 090°29'.
Warning: this ship's position is 12 days out of date.

Length 26 m; draft 3 m.

Type: Tug. MMSI: 367003390.

Date/timePositionNaut miles runAvg speedWind from/ knotsBaromVisibWave heightAir tempDewpointWater temp
2017-Nov-10 02:06N 29°34' W 090°29'0 4.7
2017-Nov-10 02:00N 29°34' W 090°29'2 4.8
2017-Nov-10 01:30N 29°34' W 090°32'2 4.5
2017-Nov-10 01:00N 29°34' W 090°34'2 3.3
2017-Nov-10 00:30N 29°35' W 090°36'1 2.7
2017-Nov-10 00:00N 29°35' W 090°38'2 3.4
2017-Nov-09 23:31N 29°36' W 090°39'2 4.0
2017-Nov-09 23:01N 29°37' W 090°42'1 2.9
2017-Nov-09 22:31N 29°36' W 090°43'1 2.6
2017-Nov-09 22:00N 29°34' W 090°43'1 2.0
2017-Nov-09 21:31N 29°34' W 090°44'3 5.1
2017-Nov-09 21:01N 29°32' W 090°46'3 6.0
2017-Nov-09 20:30N 29°32' W 090°50'60 3.6
2017-Nov-09 04:03N 29°51' W 091°55'0 4.7
2017-Nov-09 03:58N 29°51' W 091°55'2 4.8
2017-Nov-09 03:30N 29°50' W 091°58'2 5.0
2017-Nov-09 03:00N 29°50' W 092°01'2 4.9
2017-Nov-09 02:30N 29°49' W 092°03'3 5.0
2017-Nov-09 02:00N 29°48' W 092°06'2 5.0
2017-Nov-09 01:30N 29°47' W 092°09'2 4.0
2017-Nov-09 01:00N 29°47' W 092°11'2 4.1
2017-Nov-09 00:30N 29°47' W 092°13'3 5.1
2017-Nov-09 00:00N 29°48' W 092°16'3 5.2
2017-Nov-08 23:29N 29°50' W 092°18'43 5.0
2017-Nov-08 14:55N 29°56' W 093°07'2 4.7
2017-Nov-08 14:29N 29°56' W 093°09'2 4.7
2017-Nov-08 14:00N 29°58' W 093°11'2 4.9
2017-Nov-08 13:30N 29°60' W 093°13'2 3.7
2017-Nov-08 13:00N 30°01' W 093°14'2 4.3
2017-Nov-08 12:30N 30°03' W 093°16'2 3.7
2017-Nov-08 12:00N 30°04' W 093°16'1 2.8
2017-Nov-08 11:30N 30°05' W 093°18'1 1.2
2017-Nov-08 11:00N 30°06' W 093°18'0 0.6
2017-Nov-08 10:30N 30°06' W 093°18'0 0.0
2017-Nov-08 10:00N 30°06' W 093°18'0 0.1
2017-Nov-08 09:30N 30°06' W 093°18'2 3.0
2017-Nov-08 09:00N 30°05' W 093°20'1 2.3
2017-Nov-08 08:30N 30°04' W 093°21'1 1.9
2017-Nov-08 08:00N 30°04' W 093°21'2 3.8
2017-Nov-08 07:30N 30°04' W 093°23'3 5.0
2017-Nov-08 07:00N 30°04' W 093°26'2 5.0
2017-Nov-08 06:30N 30°04' W 093°29'80 4.3
2017-Nov-07 11:54N 29°31' W 094°53'3 6.6
2017-Nov-07 11:30N 29°33' W 094°55'3 6.4
2017-Nov-07 11:00N 29°36' W 094°57'4 6.6
2017-Nov-07 10:28N 29°39' W 094°58'  
2017-Nov-04 07:26N 29°45' W 095°04'3 6.0
2017-Nov-04 06:51N 29°42' W 095°01'2 6.6
2017-Nov-04 06:30N 29°41' W 094°59'4 7.4
2017-Nov-04 05:56N 29°37' W 094°57'77 4.1
2017-Nov-03 10:53N 30°04' W 093°34'2 5.2
2017-Nov-03 10:31N 30°04' W 093°31'3 6.4
2017-Nov-03 10:01N 30°04' W 093°28'3 5.9
2017-Nov-03 09:31N 30°04' W 093°24'1 1.8
2017-Nov-03 09:01N 30°04' W 093°23'2 3.9
2017-Nov-03 08:31N 30°04' W 093°21'0 0.0
2017-Nov-03 08:01N 30°04' W 093°21'2 3.2
2017-Nov-03 07:31N 30°05' W 093°20'2 3.7
2017-Nov-03 07:01N 30°05' W 093°18'1 2.9
2017-Nov-03 06:31N 30°04' W 093°16'0 0.3
2017-Nov-03 06:01N 30°04' W 093°16'0 0.1
2017-Nov-03 05:31N 30°04' W 093°16'2 4.6
2017-Nov-03 05:01N 30°02' W 093°15'3 5.3
2017-Nov-03 04:31N 30°00' W 093°14'46 6.1
2017-Nov-02 20:58N 29°51' W 092°22'3 5.9
2017-Nov-02 20:28N 29°50' W 092°18'1 2.5
2017-Nov-02 20:00N 29°49' W 092°17'2 4.1
2017-Nov-02 19:31N 29°48' W 092°15'3 5.9
2017-Nov-02 19:01N 29°47' W 092°12'1 2.1
2017-Nov-02 18:31N 29°47' W 092°11'0 0.0
2017-Nov-02 18:01N 29°47' W 092°11'0 0.9
2017-Nov-02 17:31N 29°47' W 092°11'1 2.4
2017-Nov-02 17:01N 29°47' W 092°09'0 0.1
2017-Nov-02 16:31N 29°47' W 092°09'0 0.0
2017-Nov-02 16:01N 29°47' W 092°09'0 0.0
2017-Nov-02 15:30N 29°47' W 092°09'1 2.8
2017-Nov-02 15:01N 29°47' W 092°08'4 7.0
2017-Nov-02 14:29N 29°49' W 092°04'66 5.3
2017-Nov-02 02:11N 29°32' W 090°51'1 7.4
2017-Nov-02 01:59N 29°32' W 090°49'3 6.6
2017-Nov-02 01:30N 29°33' W 090°45'3 5.1
2017-Nov-02 01:01N 29°34' W 090°43'2 4.9
2017-Nov-02 00:31N 29°37' W 090°42'1 1.1
2017-Nov-02 00:01N 29°37' W 090°42'2 4.2
2017-Nov-01 23:31N 29°36' W 090°40'3 6.1
2017-Nov-01 22:59N 29°35' W 090°36'1 2.1
2017-Nov-01 22:30N 29°35' W 090°35'0 0.0
2017-Nov-01 22:00N 29°35' W 090°35'0 0.0
2017-Nov-01 21:30N 29°35' W 090°35'0 0.0
2017-Nov-01 21:00N 29°35' W 090°35'0 0.0
2017-Nov-01 20:30N 29°35' W 090°35'0 0.0
2017-Nov-01 20:00N 29°35' W 090°35'0 0.0
2017-Nov-01 19:30N 29°35' W 090°35'0 0.0
2017-Nov-01 19:00N 29°35' W 090°35'0 0.0
2017-Nov-01 18:30N 29°35' W 090°35'  
Track history (hours):
 
Tides and Currents Weather Stations Pressure Air Temp Water Temp Dewpoint Dewpoint Depression Visibility Wind Speed Wind Dir Waves Ship Positions

Henri

Owner: Enterprise Marine Services, LLC, San Antonio, TX. More information available from US FCC via Universal Licensing System and Coast Guard Vessel Documentation Center.

Last reported at 2017-Nov-10 02:06 UTC. Time now 2017-Nov-22 14:49 UTC.
Position N 29°34' W 090°29'.
Warning: this ship's position is 12 days out of date.

Length 26 m; draft 3 m.

Type: Tug. MMSI: 367003390.

Date/timePositionNaut miles runAvg speedWind from/ knotsBaromVisibWave heightAir tempDewpointWater temp
2017-Nov-10 02:06N 29°34' W 090°29'0 4.7
2017-Nov-10 02:00N 29°34' W 090°29'2 4.8
2017-Nov-10 01:30N 29°34' W 090°32'2 4.5
2017-Nov-10 01:00N 29°34' W 090°34'2 3.3
2017-Nov-10 00:30N 29°35' W 090°36'1 2.7
2017-Nov-10 00:00N 29°35' W 090°38'2 3.4
2017-Nov-09 23:31N 29°36' W 090°39'2 4.0
2017-Nov-09 23:01N 29°37' W 090°42'1 2.9
2017-Nov-09 22:31N 29°36' W 090°43'1 2.6
2017-Nov-09 22:00N 29°34' W 090°43'1 2.0
2017-Nov-09 21:31N 29°34' W 090°44'3 5.1
2017-Nov-09 21:01N 29°32' W 090°46'3 6.0
2017-Nov-09 20:30N 29°32' W 090°50'60 3.6
2017-Nov-09 04:03N 29°51' W 091°55'0 4.7
2017-Nov-09 03:58N 29°51' W 091°55'2 4.8
2017-Nov-09 03:30N 29°50' W 091°58'2 5.0
2017-Nov-09 03:00N 29°50' W 092°01'2 4.9
2017-Nov-09 02:30N 29°49' W 092°03'3 5.0
2017-Nov-09 02:00N 29°48' W 092°06'2 5.0
2017-Nov-09 01:30N 29°47' W 092°09'2 4.0
2017-Nov-09 01:00N 29°47' W 092°11'2 4.1
2017-Nov-09 00:30N 29°47' W 092°13'3 5.1
2017-Nov-09 00:00N 29°48' W 092°16'3 5.2
2017-Nov-08 23:29N 29°50' W 092°18'43 5.0
2017-Nov-08 14:55N 29°56' W 093°07'2 4.7
2017-Nov-08 14:29N 29°56' W 093°09'2 4.7
2017-Nov-08 14:00N 29°58' W 093°11'2 4.9
2017-Nov-08 13:30N 29°60' W 093°13'2 3.7
2017-Nov-08 13:00N 30°01' W 093°14'2 4.3
2017-Nov-08 12:30N 30°03' W 093°16'2 3.7
2017-Nov-08 12:00N 30°04' W 093°16'1 2.8
2017-Nov-08 11:30N 30°05' W 093°18'1 1.2
2017-Nov-08 11:00N 30°06' W 093°18'0 0.6
2017-Nov-08 10:30N 30°06' W 093°18'0 0.0
2017-Nov-08 10:00N 30°06' W 093°18'0 0.1
2017-Nov-08 09:30N 30°06' W 093°18'2 3.0
2017-Nov-08 09:00N 30°05' W 093°20'1 2.3
2017-Nov-08 08:30N 30°04' W 093°21'1 1.9
2017-Nov-08 08:00N 30°04' W 093°21'2 3.8
2017-Nov-08 07:30N 30°04' W 093°23'3 5.0
2017-Nov-08 07:00N 30°04' W 093°26'2 5.0
2017-Nov-08 06:30N 30°04' W 093°29'80 4.3
2017-Nov-07 11:54N 29°31' W 094°53'3 6.6
2017-Nov-07 11:30N 29°33' W 094°55'3 6.4
2017-Nov-07 11:00N 29°36' W 094°57'4 6.6
2017-Nov-07 10:28N 29°39' W 094°58'  
2017-Nov-04 07:26N 29°45' W 095°04'3 6.0
2017-Nov-04 06:51N 29°42' W 095°01'2 6.6
2017-Nov-04 06:30N 29°41' W 094°59'4 7.4
2017-Nov-04 05:56N 29°37' W 094°57'77 4.1
2017-Nov-03 10:53N 30°04' W 093°34'2 5.2
2017-Nov-03 10:31N 30°04' W 093°31'3 6.4
2017-Nov-03 10:01N 30°04' W 093°28'3 5.9
2017-Nov-03 09:31N 30°04' W 093°24'1 1.8
2017-Nov-03 09:01N 30°04' W 093°23'2 3.9
2017-Nov-03 08:31N 30°04' W 093°21'0 0.0
2017-Nov-03 08:01N 30°04' W 093°21'2 3.2
2017-Nov-03 07:31N 30°05' W 093°20'2 3.7
2017-Nov-03 07:01N 30°05' W 093°18'1 2.9
2017-Nov-03 06:31N 30°04' W 093°16'0 0.3
2017-Nov-03 06:01N 30°04' W 093°16'0 0.1
2017-Nov-03 05:31N 30°04' W 093°16'2 4.6
2017-Nov-03 05:01N 30°02' W 093°15'3 5.3
2017-Nov-03 04:31N 30°00' W 093°14'46 6.1
2017-Nov-02 20:58N 29°51' W 092°22'3 5.9
2017-Nov-02 20:28N 29°50' W 092°18'1 2.5
2017-Nov-02 20:00N 29°49' W 092°17'2 4.1
2017-Nov-02 19:31N 29°48' W 092°15'3 5.9
2017-Nov-02 19:01N 29°47' W 092°12'1 2.1
2017-Nov-02 18:31N 29°47' W 092°11'0 0.0
2017-Nov-02 18:01N 29°47' W 092°11'0 0.9
2017-Nov-02 17:31N 29°47' W 092°11'1 2.4
2017-Nov-02 17:01N 29°47' W 092°09'0 0.1
2017-Nov-02 16:31N 29°47' W 092°09'0 0.0
2017-Nov-02 16:01N 29°47' W 092°09'0 0.0
2017-Nov-02 15:30N 29°47' W 092°09'1 2.8
2017-Nov-02 15:01N 29°47' W 092°08'4 7.0
2017-Nov-02 14:29N 29°49' W 092°04'66 5.3
2017-Nov-02 02:11N 29°32' W 090°51'1 7.4
2017-Nov-02 01:59N 29°32' W 090°49'3 6.6
2017-Nov-02 01:30N 29°33' W 090°45'3 5.1
2017-Nov-02 01:01N 29°34' W 090°43'2 4.9
2017-Nov-02 00:31N 29°37' W 090°42'1 1.1
2017-Nov-02 00:01N 29°37' W 090°42'2 4.2
2017-Nov-01 23:31N 29°36' W 090°40'3 6.1
2017-Nov-01 22:59N 29°35' W 090°36'1 2.1
2017-Nov-01 22:30N 29°35' W 090°35'0 0.0
2017-Nov-01 22:00N 29°35' W 090°35'0 0.0
2017-Nov-01 21:30N 29°35' W 090°35'0 0.0
2017-Nov-01 21:00N 29°35' W 090°35'0 0.0
2017-Nov-01 20:30N 29°35' W 090°35'0 0.0
2017-Nov-01 20:00N 29°35' W 090°35'0 0.0
2017-Nov-01 19:30N 29°35' W 090°35'0 0.0
2017-Nov-01 19:00N 29°35' W 090°35'0 0.0
2017-Nov-01 18:30N 29°35' W 090°35'  

Dump ship's entire track history